Time;durP1;ratioP1;P1;durP2;ratioP2;P2;SDS_P1;SDS_P2;PMS_P1;PMS_P2;Temp;Humidity;BMP_temperature;BMP_pressure;BME280_temperature;BME280_humidity;BME280_pressure;Samples;Min_cycle;Max_cycle;Signal;HPM_P1;HPM_P2
2022/07/22 00:01:02;;;;;;;7.65;3.00;;;;;;;;;;4916297;29;20024;-43
2022/07/22 00:03:27;;;;;;;10.70;3.70;;;;;;;;;;4916634;29;20123;-48
2022/07/22 00:05:53;;;;;;;5.70;3.13;;;;;;;;;;4916290;29;20469;-46
2022/07/22 00:08:18;;;;;;;8.27;3.67;;;;;;;;;;4916271;29;20032;-47
2022/07/22 00:10:44;;;;;;;15.25;3.70;;;;;;;;;;4916301;29;20084;-40
2022/07/22 00:13:09;;;;;;;7.25;3.13;;;;;;;;;;4916186;29;20024;-40
2022/07/22 00:15:35;;;;;;;7.35;3.45;;;;;;;;;;4916228;29;20385;-40
2022/07/22 00:18:00;;;;;;;8.02;3.50;;;;;;;;;;4916458;29;20028;-43
2022/07/22 00:20:26;;;;;;;5.13;3.20;;;;;;;;;;4916180;29;20107;-40
2022/07/22 00:22:51;;;;;;;13.25;3.35;;;;;;;;;;4916464;29;20032;-45
2022/07/22 00:25:17;;;;;;;12.27;3.33;;;;;;;;;;4916469;29;20032;-41
2022/07/22 00:27:42;;;;;;;4.32;3.35;;;;;;;;;;4916159;29;20065;-40
2022/07/22 00:30:09;;;;;;;8.30;3.25;;;;;;;;;;4916157;29;20064;-40
2022/07/22 00:32:35;;;;;;;4.70;3.60;;;;;;;;;;4915953;29;20039;-40
2022/07/22 00:35:00;;;;;;;6.88;3.55;;;;;;;;;;4916287;29;20025;-41
2022/07/22 00:37:26;;;;;;;6.45;3.25;;;;;;;;;;4916294;29;20107;-40
2022/07/22 00:39:51;;;;;;;4.45;3.00;;;;;;;;;;4915736;29;20044;-48
2022/07/22 00:42:17;;;;;;;5.10;3.05;;;;;;;;;;4916123;29;20059;-45
2022/07/22 00:44:43;;;;;;;7.03;3.00;;;;;;;;;;4916237;29;20483;-41
2022/07/22 00:47:08;;;;;;;13.07;3.72;;;;;;;;;;4915925;29;20035;-55
2022/07/22 00:49:34;;;;;;;8.10;3.30;;;;;;;;;;4916170;29;20032;-50
2022/07/22 00:51:59;;;;;;;6.45;3.10;;;;;;;;;;4915854;29;20055;-42
2022/07/22 00:54:25;;;;;;;3.88;3.25;;;;;;;;;;4916122;29;20460;-43
2022/07/22 00:56:50;;;;;;;8.05;3.83;;;;;;;;;;4915771;29;20051;-42
2022/07/22 00:59:16;;;;;;;8.10;3.67;;;;;;;;;;4917526;29;20028;-40
2022/07/22 01:01:42;;;;;;;14.15;3.47;;;;;;;;;;4919565;29;20055;-42
2022/07/22 01:04:07;;;;;;;4.13;3.53;;;;;;;;;;4919511;29;20468;-40
2022/07/22 01:06:33;;;;;;;4.88;3.10;;;;;;;;;;4919213;29;20056;-40
2022/07/22 01:08:59;;;;;;;5.38;3.03;;;;;;;;;;4919489;29;20032;-40
2022/07/22 01:11:25;;;;;;;8.45;3.10;;;;;;;;;;4919392;29;20028;-42
2022/07/22 01:13:51;;;;;;;7.78;3.20;;;;;;;;;;4919284;29;20035;-40
2022/07/22 01:16:20;;;;;;;6.68;3.40;;;;;;;;;;4919325;29;20357;-41
2022/07/22 01:18:46;;;;;;;5.55;3.40;;;;;;;;;;4919282;29;20380;-47
2022/07/22 01:21:12;;;;;;;3.67;2.97;;;;;;;;;;4919010;29;20034;-41
2022/07/22 01:23:38;;;;;;;6.00;3.25;;;;;;;;;;4917774;29;20119;-42
2022/07/22 01:26:04;;;;;;;8.25;3.53;;;;;;;;;;4919141;29;20114;-42
2022/07/22 01:28:30;;;;;;;5.93;2.97;;;;;;;;;;4933493;29;20032;-41
2022/07/22 01:30:56;;;;;;;10.48;3.67;;;;;;;;;;4918895;29;20026;-48
2022/07/22 01:33:23;;;;;;;6.53;3.30;;;;;;;;;;4918771;29;20388;-43
2022/07/22 01:35:49;;;;;;;5.82;3.40;;;;;;;;;;4918794;29;20024;-42
2022/07/22 01:38:15;;;;;;;5.90;3.45;;;;;;;;;;4918709;29;20024;-55
2022/07/22 01:40:41;;;;;;;10.55;3.22;;;;;;;;;;4918408;29;20823;-51
2022/07/22 01:43:07;;;;;;;5.07;3.20;;;;;;;;;;4918616;29;20043;-43
2022/07/22 01:45:33;;;;;;;5.60;3.10;;;;;;;;;;4918604;29;20028;-42
2022/07/22 01:47:58;;;;;;;8.25;3.75;;;;;;;;;;4918486;29;20024;-41
2022/07/22 01:50:24;;;;;;;17.80;4.85;;;;;;;;;;4918752;29;20068;-41
2022/07/22 01:52:50;;;;;;;7.47;3.15;;;;;;;;;;4918633;29;20384;-41
2022/07/22 01:55:16;;;;;;;8.02;3.22;;;;;;;;;;4918367;29;20387;-40
2022/07/22 01:57:41;;;;;;;7.05;3.35;;;;;;;;;;4918623;29;20035;-41
2022/07/22 02:00:08;;;;;;;6.35;3.50;;;;;;;;;;4918284;29;20024;-41
2022/07/22 02:02:35;;;;;;;6.88;3.45;;;;;;;;;;4918291;29;20040;-40
2022/07/22 02:05:01;;;;;;;4.55;3.17;;;;;;;;;;4918513;29;20028;-41
2022/07/22 02:07:26;;;;;;;7.65;3.35;;;;;;;;;;4918447;29;20035;-42
2022/07/22 02:09:52;;;;;;;9.30;3.50;;;;;;;;;;4918101;29;20020;-40
2022/07/22 02:12:18;;;;;;;6.47;3.70;;;;;;;;;;4917867;29;20111;-41
2022/07/22 02:14:44;;;;;;;4.65;3.10;;;;;;;;;;4918064;29;20043;-41
2022/07/22 02:17:10;;;;;;;10.18;3.72;;;;;;;;;;4918004;29;20032;-41
2022/07/22 02:19:36;;;;;;;16.77;3.70;;;;;;;;;;4918160;29;20036;-45
2022/07/22 02:22:01;;;;;;;15.57;3.33;;;;;;;;;;4917825;29;20128;-47
2022/07/22 02:24:26;;;;;;;7.35;3.08;;;;;;;;;;4917781;29;20032;-41
2022/07/22 02:26:52;;;;;;;6.45;3.40;;;;;;;;;;4918056;29;20076;-40
2022/07/22 02:29:17;;;;;;;5.20;3.25;;;;;;;;;;4918030;29;20083;-40
2022/07/22 02:31:43;;;;;;;4.95;3.10;;;;;;;;;;4917997;29;20513;-45
2022/07/22 02:34:08;;;;;;;5.65;3.25;;;;;;;;;;4917613;29;20028;-40
2022/07/22 02:36:33;;;;;;;6.97;3.08;;;;;;;;;;4917904;29;20028;-40
2022/07/22 02:38:59;;;;;;;7.53;3.50;;;;;;;;;;4917554;29;20060;-40
2022/07/22 02:41:24;;;;;;;5.68;3.88;;;;;;;;;;4917452;29;20051;-40
2022/07/22 02:43:53;;;;;;;7.00;3.38;;;;;;;;;;4917767;29;20615;-53
2022/07/22 02:46:19;;;;;;;4.30;3.25;;;;;;;;;;4917454;29;20480;-51
2022/07/22 02:48:45;;;;;;;6.95;3.35;;;;;;;;;;4917405;29;20036;-40
2022/07/22 02:51:10;;;;;;;5.72;3.30;;;;;;;;;;4917368;29;20028;-47
2022/07/22 02:53:35;;;;;;;8.07;3.90;;;;;;;;;;4917585;29;20043;-43
2022/07/22 02:56:01;;;;;;;7.43;3.80;;;;;;;;;;4917262;29;20051;-42
2022/07/22 02:58:26;;;;;;;5.93;3.30;;;;;;;;;;4917539;29;20032;-40
2022/07/22 03:00:52;;;;;;;6.85;3.35;;;;;;;;;;4917546;29;20426;-40
2022/07/22 03:03:17;;;;;;;8.75;3.65;;;;;;;;;;4917266;29;20036;-41
2022/07/22 03:05:42;;;;;;;5.55;3.88;;;;;;;;;;4917357;29;20030;-40
2022/07/22 03:08:08;;;;;;;5.65;3.50;;;;;;;;;;4917132;29;20488;-40
2022/07/22 03:10:33;;;;;;;14.63;3.40;;;;;;;;;;4917277;29;20032;-39
2022/07/22 03:12:59;;;;;;;5.93;3.67;;;;;;;;;;4917156;29;20035;-40
2022/07/22 03:15:24;;;;;;;4.55;3.20;;;;;;;;;;4917292;29;20489;-45
2022/07/22 03:17:49;;;;;;;9.35;3.47;;;;;;;;;;4916914;29;20028;-40
2022/07/22 03:20:15;;;;;;;8.82;3.92;;;;;;;;;;4917189;29;20040;-40
2022/07/22 03:22:40;;;;;;;9.40;3.65;;;;;;;;;;4916267;29;20362;-39
2022/07/22 03:25:06;;;;;;;7.60;3.60;;;;;;;;;;4917100;29;20484;-41
2022/07/22 03:27:31;;;;;;;5.13;3.38;;;;;;;;;;4917071;29;20036;-38
2022/07/22 03:29:57;;;;;;;12.15;3.67;;;;;;;;;;4917005;29;20028;-41
2022/07/22 03:32:22;;;;;;;4.70;3.42;;;;;;;;;;4916909;29;20032;-55
2022/07/22 03:34:47;;;;;;;4.47;3.30;;;;;;;;;;4916685;29;20039;-56
2022/07/22 03:37:13;;;;;;;6.38;3.08;;;;;;;;;;4916909;29;20021;-55
2022/07/22 03:39:38;;;;;;;15.48;4.00;;;;;;;;;;4916926;29;20487;-51
2022/07/22 03:42:04;;;;;;;17.90;4.05;;;;;;;;;;4916442;29;20048;-41
2022/07/22 03:44:29;;;;;;;12.32;3.50;;;;;;;;;;4916569;29;20031;-50
2022/07/22 03:46:54;;;;;;;11.32;3.17;;;;;;;;;;4916511;29;20033;-44
2022/07/22 03:49:20;;;;;;;10.80;4.03;;;;;;;;;;4916742;29;20042;-52
2022/07/22 03:51:45;;;;;;;16.25;4.65;;;;;;;;;;4916378;29;20488;-52
2022/07/22 03:54:11;;;;;;;10.45;3.58;;;;;;;;;;4916546;29;20108;-50
2022/07/22 03:56:36;;;;;;;14.98;3.78;;;;;;;;;;4916352;29;20035;-43
2022/07/22 03:59:02;;;;;;;19.92;4.00;;;;;;;;;;4916348;29;20039;-52
2022/07/22 04:01:27;;;;;;;45.85;7.32;;;;;;;;;;4916278;29;20111;-51
2022/07/22 04:03:53;;;;;;;71.05;8.15;;;;;;;;;;4916304;29;20080;-43
2022/07/22 04:06:18;;;;;;;52.35;6.95;;;;;;;;;;4916457;29;20380;-40
2022/07/22 04:08:44;;;;;;;29.08;5.28;;;;;;;;;;4916540;29;20032;-41
2022/07/22 04:11:09;;;;;;;23.83;4.47;;;;;;;;;;4916305;29;20392;-40
2022/07/22 04:13:35;;;;;;;16.58;3.78;;;;;;;;;;4916167;29;20024;-42
2022/07/22 04:16:00;;;;;;;15.80;3.50;;;;;;;;;;4916169;29;20039;-44
2022/07/22 04:18:26;;;;;;;15.25;3.35;;;;;;;;;;4916242;29;20023;-45
2022/07/22 04:20:51;;;;;;;12.40;3.30;;;;;;;;;;4916142;29;20047;-41
2022/07/22 04:23:16;;;;;;;23.40;3.70;;;;;;;;;;4916151;29;20107;-45
2022/07/22 04:25:42;;;;;;;27.00;3.90;;;;;;;;;;4916128;29;20123;-39
2022/07/22 04:28:07;;;;;;;23.80;4.18;;;;;;;;;;4914928;29;20032;-42
2022/07/22 04:30:33;;;;;;;14.95;3.78;;;;;;;;;;4916395;29;20115;-39
2022/07/22 04:32:58;;;;;;;20.67;3.58;;;;;;;;;;4915979;29;20366;-41
2022/07/22 04:35:24;;;;;;;26.40;4.28;;;;;;;;;;4918578;29;20039;-39
2022/07/22 04:37:49;;;;;;;5.95;2.75;;;;;;;;;;4918859;29;20035;-46
2022/07/22 04:40:15;;;;;;;11.32;2.90;;;;;;;;;;4919799;29;20457;-46
2022/07/22 04:42:40;;;;;;;9.43;2.67;;;;;;;;;;4919570;29;20118;-41
2022/07/22 04:45:06;;;;;;;15.98;2.90;;;;;;;;;;4919660;29;20477;-44
2022/07/22 04:47:31;;;;;;;12.63;2.47;;;;;;;;;;4919867;29;20032;-43
2022/07/22 04:49:57;;;;;;;9.50;2.60;;;;;;;;;;4919895;29;20040;-44
2022/07/22 04:52:22;;;;;;;5.28;2.30;;;;;;;;;;4919737;29;20107;-43
2022/07/22 04:54:48;;;;;;;7.22;2.55;;;;;;;;;;4919760;29;20088;-40
2022/07/22 04:57:13;;;;;;;10.77;2.50;;;;;;;;;;4919424;29;20024;-41
2022/07/22 04:59:39;;;;;;;4.10;1.95;;;;;;;;;;4919754;29;20032;-46
2022/07/22 05:02:04;;;;;;;9.02;2.33;;;;;;;;;;4919684;29;20575;-46
2022/07/22 05:04:30;;;;;;;6.78;2.33;;;;;;;;;;4919422;29;20568;-41
2022/07/22 05:06:55;;;;;;;4.82;2.47;;;;;;;;;;4919280;29;20043;-50
2022/07/22 05:09:21;;;;;;;2.97;2.05;;;;;;;;;;4919314;29;20032;-48
2022/07/22 05:11:46;;;;;;;7.38;2.40;;;;;;;;;;4919291;29;20028;-51
2022/07/22 05:14:12;;;;;;;4.82;2.55;;;;;;;;;;4919269;29;20043;-40
2022/07/22 05:16:37;;;;;;;3.55;1.80;;;;;;;;;;4919085;29;20386;-41
2022/07/22 05:19:05;;;;;;;6.18;1.92;;;;;;;;;;4918940;29;20024;-45
2022/07/22 05:21:30;;;;;;;13.85;2.50;;;;;;;;;;4919211;29;20028;-46
2022/07/22 05:23:56;;;;;;;12.65;2.70;;;;;;;;;;4918900;29;20508;-41
2022/07/22 05:26:21;;;;;;;3.72;2.08;;;;;;;;;;4919122;29;20039;-45
2022/07/22 05:28:46;;;;;;;13.10;3.20;;;;;;;;;;4918909;29;20035;-40
2022/07/22 05:31:12;;;;;;;11.68;2.83;;;;;;;;;;4918812;29;20030;-44
2022/07/22 05:33:38;;;;;;;8.70;2.38;;;;;;;;;;4919290;29;20043;-41
2022/07/22 05:36:05;;;;;;;10.32;2.58;;;;;;;;;;4917594;29;20032;-42
2022/07/22 05:38:32;;;;;;;8.07;2.20;;;;;;;;;;4918992;29;20029;-46
2022/07/22 05:40:58;;;;;;;5.35;1.80;;;;;;;;;;4918806;29;20055;-42
2022/07/22 05:43:24;;;;;;;6.50;1.73;;;;;;;;;;4919431;29;20385;-44
2022/07/22 05:45:50;;;;;;;5.45;1.70;;;;;;;;;;4917923;29;20376;-41
2022/07/22 05:48:16;;;;;;;5.30;1.77;;;;;;;;;;4918904;29;20103;-43
2022/07/22 05:50:42;;;;;;;12.70;2.10;;;;;;;;;;4919294;29;20060;-40
2022/07/22 05:53:08;;;;;;;5.93;1.98;;;;;;;;;;4918430;29;20067;-41
2022/07/22 05:55:33;;;;;;;7.75;1.67;;;;;;;;;;4918631;29;20083;-40
2022/07/22 05:57:58;;;;;;;6.88;2.10;;;;;;;;;;4917553;29;20379;-40
2022/07/22 06:00:24;;;;;;;5.85;1.70;;;;;;;;;;4918258;29;20025;-46
2022/07/22 06:02:49;;;;;;;7.47;2.00;;;;;;;;;;4918548;29;20034;-44
2022/07/22 06:05:15;;;;;;;9.85;2.10;;;;;;;;;;4918591;29;20376;-40
2022/07/22 06:07:40;;;;;;;9.35;1.88;;;;;;;;;;4918282;29;20028;-44
2022/07/22 06:10:06;;;;;;;10.38;1.95;;;;;;;;;;4918369;29;20468;-46
2022/07/22 06:12:31;;;;;;;15.85;3.65;;;;;;;;;;4918492;29;20028;-41
2022/07/22 06:14:57;;;;;;;4.78;1.60;;;;;;;;;;4918447;29;20034;-40
2022/07/22 06:17:22;;;;;;;7.63;1.70;;;;;;;;;;4918340;29;20059;-40
2022/07/22 06:19:48;;;;;;;5.20;1.50;;;;;;;;;;4918395;29;20039;-41
2022/07/22 06:22:13;;;;;;;2.20;1.45;;;;;;;;;;4919235;29;20457;-42
2022/07/22 06:24:38;;;;;;;3.95;1.70;;;;;;;;;;4917833;29;20361;-44
2022/07/22 06:27:04;;;;;;;1.60;1.40;;;;;;;;;;4917842;29;20032;-42
2022/07/22 06:29:29;;;;;;;2.25;1.50;;;;;;;;;;4918053;29;20039;-43
2022/07/22 06:31:55;;;;;;;2.38;1.48;;;;;;;;;;4917744;29;20055;-47
2022/07/22 06:34:20;;;;;;;1.90;1.50;;;;;;;;;;4917944;29;20370;-46
2022/07/22 06:36:46;;;;;;;2.80;1.63;;;;;;;;;;4917672;29;20059;-41
2022/07/22 06:39:11;;;;;;;3.55;1.55;;;;;;;;;;4917626;29;20083;-42
2022/07/22 06:41:37;;;;;;;4.25;1.42;;;;;;;;;;4917377;29;20040;-41
2022/07/22 06:44:02;;;;;;;1.55;1.45;;;;;;;;;;4917737;29;20054;-46
2022/07/22 06:46:28;;;;;;;2.05;1.63;;;;;;;;;;4917681;29;20032;-41
2022/07/22 06:48:54;;;;;;;8.27;1.58;;;;;;;;;;4917681;29;20036;-42
2022/07/22 06:51:19;;;;;;;3.15;1.42;;;;;;;;;;4917502;29;20032;-42
2022/07/22 06:53:45;;;;;;;2.08;1.40;;;;;;;;;;4917731;29;20424;-43
2022/07/22 06:56:10;;;;;;;2.30;1.40;;;;;;;;;;4917183;29;20429;-41
2022/07/22 06:58:36;;;;;;;2.05;1.23;;;;;;;;;;4917480;29;20047;-42
2022/07/22 07:01:03;;;;;;;9.35;1.90;;;;;;;;;;4917624;29;20103;-46
2022/07/22 07:03:29;;;;;;;3.60;1.45;;;;;;;;;;4917448;29;20032;-40
2022/07/22 07:05:54;;;;;;;6.15;1.92;;;;;;;;;;4917275;29;20024;-41
2022/07/22 07:08:20;;;;;;;6.03;1.88;;;;;;;;;;4917611;29;20028;-41
2022/07/22 07:10:45;;;;;;;5.93;1.63;;;;;;;;;;4917269;29;20024;-43
2022/07/22 07:13:10;;;;;;;5.18;1.48;;;;;;;;;;4916436;29;20496;-42
2022/07/22 07:15:36;;;;;;;4.38;1.77;;;;;;;;;;4915227;29;20028;-40
2022/07/22 07:18:02;;;;;;;4.00;1.40;;;;;;;;;;4915019;29;20075;-43
2022/07/22 07:20:27;;;;;;;24.95;2.47;;;;;;;;;;4915561;29;20038;-41
2022/07/22 07:22:53;;;;;;;1.60;1.30;;;;;;;;;;4916671;29;20250;-42
2022/07/22 07:25:19;;;;;;;6.93;1.63;;;;;;;;;;4916250;29;20047;-45
2022/07/22 07:27:44;;;;;;;4.18;1.30;;;;;;;;;;4911958;29;20024;-41
2022/07/22 07:30:10;;;;;;;6.70;1.60;;;;;;;;;;4908399;29;20533;-41
2022/07/22 07:32:37;;;;;;;2.42;1.40;;;;;;;;;;4911320;29;20084;-43
2022/07/22 07:35:03;;;;;;;1.77;1.40;;;;;;;;;;4917057;29;20028;-42
2022/07/22 07:37:29;;;;;;;2.60;1.52;;;;;;;;;;4915746;29;20016;-42
2022/07/22 07:39:55;;;;;;;3.25;1.50;;;;;;;;;;4906390;29;20029;-41
2022/07/22 07:42:20;;;;;;;1.67;1.20;;;;;;;;;;4905909;29;20400;-45
2022/07/22 07:44:45;;;;;;;4.45;1.30;;;;;;;;;;4909617;29;20043;-41
2022/07/22 07:47:13;;;;;;;5.47;1.48;;;;;;;;;;4916362;29;20024;-41
2022/07/22 07:49:38;;;;;;;3.78;1.20;;;;;;;;;;4916430;29;20477;-43
2022/07/22 07:52:04;;;;;;;7.93;1.52;;;;;;;;;;4916633;29;20088;-41
2022/07/22 07:54:29;;;;;;;6.43;1.60;;;;;;;;;;4915260;29;20028;-42
2022/07/22 07:56:54;;;;;;;4.90;1.58;;;;;;;;;;4910723;29;20037;-42
2022/07/22 07:59:20;;;;;;;1.73;1.35;;;;;;;;;;4907291;29;20024;-43
2022/07/22 08:01:45;;;;;;;5.68;1.55;;;;;;;;;;4913745;29;20035;-45
2022/07/22 08:04:11;;;;;;;3.90;1.38;;;;;;;;;;4916143;29;20032;-45
2022/07/22 08:06:36;;;;;;;4.05;1.88;;;;;;;;;;4916483;29;20028;-41
2022/07/22 08:09:02;;;;;;;2.90;1.73;;;;;;;;;;4905010;29;20064;-48
2022/07/22 08:11:27;;;;;;;4.55;1.45;;;;;;;;;;4908897;29;20032;-40
2022/07/22 08:13:53;;;;;;;59.78;6.03;;;;;;;;;;4906066;29;20461;-40
2022/07/22 08:16:18;;;;;;;8.40;1.65;;;;;;;;;;4905453;29;20036;-44
2022/07/22 08:18:44;;;;;;;3.50;1.40;;;;;;;;;;4907134;29;20164;-45
2022/07/22 08:21:09;;;;;;;49.00;3.80;;;;;;;;;;4900532;29;20111;-40
2022/07/22 08:23:34;;;;;;;9.00;1.80;;;;;;;;;;4895471;29;20032;-42
2022/07/22 08:26:00;;;;;;;4.30;1.45;;;;;;;;;;4904429;29;20039;-43
2022/07/22 08:28:26;;;;;;;2.25;1.58;;;;;;;;;;4910388;29;20488;-44
2022/07/22 08:30:52;;;;;;;4.25;1.55;;;;;;;;;;4907527;29;20425;-41
2022/07/22 08:33:18;;;;;;;4.78;1.42;;;;;;;;;;4911097;29;20035;-40
2022/07/22 08:35:43;;;;;;;5.22;1.75;;;;;;;;;;4900950;29;20036;-42
2022/07/22 08:38:09;;;;;;;7.25;1.75;;;;;;;;;;4897388;29;20058;-43
2022/07/22 08:40:34;;;;;;;2.65;1.30;;;;;;;;;;4895885;29;20504;-43
2022/07/22 08:43:02;;;;;;;3.10;1.40;;;;;;;;;;4897300;29;20108;-49
2022/07/22 08:45:31;;;;;;;6.88;1.83;;;;;;;;;;4900442;29;20180;-51
2022/07/22 08:47:59;;;;;;;1.02;0.98;;;;;;;;;;4903701;29;20414;-47
2022/07/22 08:50:24;;;;;;;3.22;1.20;;;;;;;;;;4900306;29;20441;-40
2022/07/22 08:52:50;;;;;;;1.70;1.20;;;;;;;;;;4905534;29;20032;-49
2022/07/22 08:55:16;;;;;;;4.97;2.00;;;;;;;;;;4905783;29;20052;-41
2022/07/22 08:57:46;;;;;;;5.53;1.65;;;;;;;;;;4908168;29;20386;-51
2022/07/22 09:00:13;;;;;;;6.88;1.90;;;;;;;;;;4915762;29;20028;-47
2022/07/22 09:02:41;;;;;;;1.88;1.20;;;;;;;;;;4915827;29;20043;-45
2022/07/22 09:05:09;;;;;;;5.13;1.40;;;;;;;;;;4911415;29;20434;-41
2022/07/22 09:07:39;;;;;;;1.73;1.10;;;;;;;;;;4904976;29;20020;-39
2022/07/22 09:10:16;;;;;;;2.88;1.45;;;;;;;;;;4903694;29;20040;-45
2022/07/22 09:12:52;;;;;;;3.42;1.33;;;;;;;;;;4915392;29;20191;-45
2022/07/22 09:15:29;;;;;;;1.48;1.20;;;;;;;;;;4915553;29;20036;-44
2022/07/22 09:17:55;;;;;;;1.65;1.30;;;;;;;;;;4915902;29;20024;-43
2022/07/22 09:20:20;;;;;;;3.05;1.25;;;;;;;;;;4916266;29;20048;-41
2022/07/22 09:22:48;;;;;;;2.60;1.20;;;;;;;;;;4918783;29;20067;-40
2022/07/22 09:25:21;;;;;;;1.40;1.10;;;;;;;;;;4919155;29;20440;-48
2022/07/22 09:27:48;;;;;;;4.13;1.35;;;;;;;;;;4918759;29;20032;-48
2022/07/22 09:30:22;;;;;;;22.30;2.33;;;;;;;;;;4917244;29;20083;-43
2022/07/22 09:32:48;;;;;;;2.15;1.30;;;;;;;;;;4918767;29;20484;-42
2022/07/22 09:35:15;;;;;;;2.38;1.35;;;;;;;;;;4918778;29;20479;-44
2022/07/22 09:37:55;;;;;;;1.13;1.00;;;;;;;;;;4918991;29;20035;-43
2022/07/22 09:40:26;;;;;;;3.85;0.90;;;;;;;;;;4917521;29;20035;-42
2022/07/22 09:42:57;;;;;;;3.05;1.38;;;;;;;;;;4918387;29;20071;-44
2022/07/22 09:45:24;;;;;;;2.40;1.48;;;;;;;;;;4918503;29;20043;-41
2022/07/22 09:47:51;;;;;;;2.28;2.08;;;;;;;;;;4918567;29;20524;-41
2022/07/22 09:50:18;;;;;;;1.42;1.23;;;;;;;;;;4918750;29;20048;-45
2022/07/22 09:52:44;;;;;;;1.83;1.25;;;;;;;;;;4918648;29;20383;-43
2022/07/22 09:55:10;;;;;;;2.88;1.40;;;;;;;;;;4918459;29;20445;-41
2022/07/22 09:57:35;;;;;;;1.98;1.05;;;;;;;;;;4918715;29;20055;-41
2022/07/22 10:00:01;;;;;;;3.10;1.20;;;;;;;;;;4918589;29;20071;-45
2022/07/22 10:02:27;;;;;;;4.38;1.10;;;;;;;;;;4918243;29;20032;-51
2022/07/22 10:04:55;;;;;;;2.17;1.40;;;;;;;;;;4918514;29;20055;-43
2022/07/22 10:07:23;;;;;;;1.70;1.60;;;;;;;;;;4918014;29;20036;-45
2022/07/22 10:09:49;;;;;;;2.92;1.13;;;;;;;;;;4918076;29;20039;-44
2022/07/22 10:12:15;;;;;;;1.15;1.05;;;;;;;;;;4918181;29;20110;-41
2022/07/22 10:14:41;;;;;;;4.85;1.63;;;;;;;;;;4918033;29;20115;-43
2022/07/22 10:17:06;;;;;;;2.80;1.40;;;;;;;;;;4918555;29;20092;-42
2022/07/22 10:19:32;;;;;;;2.17;1.27;;;;;;;;;;4918747;29;20373;-42
2022/07/22 10:21:57;;;;;;;3.05;1.55;;;;;;;;;;4918831;29;20115;-42
2022/07/22 10:24:23;;;;;;;2.65;1.42;;;;;;;;;;4918710;29;20421;-45
2022/07/22 10:26:48;;;;;;;5.40;1.83;;;;;;;;;;4918082;29;20063;-45
2022/07/22 10:29:27;;;;;;;2.90;1.35;;;;;;;;;;4920229;29;20036;-42
2022/07/22 10:32:15;;;;;;;4.82;1.50;;;;;;;;;;4917361;29;20046;-42
2022/07/22 10:35:01;;;;;;;2.10;1.40;;;;;;;;;;4917725;29;20398;-43
2022/07/22 10:37:41;;;;;;;3.80;1.85;;;;;;;;;;4917848;29;20035;-44
2022/07/22 10:40:21;;;;;;;3.75;1.40;;;;;;;;;;4918525;29;20516;-42
2022/07/22 10:43:03;;;;;;;4.70;1.40;;;;;;;;;;4917552;29;20048;-43
2022/07/22 10:45:50;;;;;;;1.33;1.20;;;;;;;;;;4917390;29;20104;-40
2022/07/22 10:48:18;;;;;;;3.45;1.45;;;;;;;;;;4903776;29;20025;-43
2022/07/22 10:50:46;;;;;;;6.93;1.83;;;;;;;;;;4898591;29;20024;-41
2022/07/22 10:53:12;;;;;;;5.05;1.60;;;;;;;;;;4897286;29;20477;-43
2022/07/22 10:55:57;;;;;;;3.90;1.73;;;;;;;;;;4898721;29;20110;-41
2022/07/22 10:58:32;;;;;;;3.10;1.55;;;;;;;;;;4898785;29;20033;-41
2022/07/22 11:01:05;;;;;;;2.65;1.60;;;;;;;;;;4898356;29;20616;-45
2022/07/22 11:03:31;;;;;;;2.95;1.60;;;;;;;;;;4898416;29;20040;-43
2022/07/22 11:05:59;;;;;;;2.30;1.50;;;;;;;;;;4898450;29;20032;-44
2022/07/22 11:08:25;;;;;;;4.07;1.57;;;;;;;;;;4898212;29;20028;-41
2022/07/22 11:10:51;;;;;;;3.90;1.70;;;;;;;;;;4898141;29;20173;-42
2022/07/22 11:13:36;;;;;;;3.42;1.60;;;;;;;;;;4898396;29;20048;-44
2022/07/22 11:16:18;;;;;;;3.88;1.70;;;;;;;;;;4898406;29;20032;-43
2022/07/22 11:18:53;;;;;;;4.15;1.40;;;;;;;;;;4898011;29;20029;-40
2022/07/22 11:21:21;;;;;;;3.65;1.20;;;;;;;;;;4897884;29;20085;-44
2022/07/22 11:23:48;;;;;;;5.47;1.50;;;;;;;;;;4897877;29;20024;-46
2022/07/22 11:26:16;;;;;;;10.25;2.15;;;;;;;;;;4896647;29;20032;-50
2022/07/22 11:28:43;;;;;;;2.22;1.58;;;;;;;;;;4898142;29;20028;-40
2022/07/22 11:31:13;;;;;;;5.25;1.40;;;;;;;;;;4898119;29;20032;-41
2022/07/22 11:33:38;;;;;;;8.60;2.05;;;;;;;;;;4897725;29;20025;-43
2022/07/22 11:36:11;;;;;;;3.00;1.60;;;;;;;;;;4897838;29;20035;-40
2022/07/22 11:38:47;;;;;;;5.70;1.55;;;;;;;;;;4898504;29;20036;-42
2022/07/22 11:41:17;;;;;;;4.32;2.00;;;;;;;;;;4899245;29;20060;-46
2022/07/22 11:43:47;;;;;;;2.88;1.70;;;;;;;;;;4898488;29;20036;-44
2022/07/22 11:46:17;;;;;;;2.35;1.50;;;;;;;;;;4898104;29;20044;-44
2022/07/22 11:48:44;;;;;;;3.38;1.48;;;;;;;;;;4897695;29;20076;-40
2022/07/22 11:51:11;;;;;;;8.20;3.55;;;;;;;;;;4897603;29;20473;-42
2022/07/22 11:53:39;;;;;;;5.43;1.90;;;;;;;;;;4897761;29;20045;-40
2022/07/22 11:56:06;;;;;;;2.60;1.50;;;;;;;;;;4897996;29;20040;-41
2022/07/22 11:58:49;;;;;;;4.90;1.65;;;;;;;;;;4897528;29;20036;-41
2022/07/22 12:01:17;;;;;;;3.13;1.88;;;;;;;;;;4898020;29;20389;-41
2022/07/22 12:03:48;;;;;;;7.95;1.70;;;;;;;;;;4898095;29;20548;-40
2022/07/22 12:06:16;;;;;;;5.25;1.85;;;;;;;;;;4899809;29;20028;-40
2022/07/22 12:08:47;;;;;;;5.32;1.95;;;;;;;;;;4897664;29;20107;-40
2022/07/22 12:11:15;;;;;;;2.67;1.67;;;;;;;;;;4898790;29;20077;-39
2022/07/22 12:13:46;;;;;;;3.30;1.80;;;;;;;;;;4897732;29;20039;-45
2022/07/22 12:16:24;;;;;;;3.83;1.73;;;;;;;;;;4901199;29;20024;-41
2022/07/22 12:18:58;;;;;;;3.38;1.60;;;;;;;;;;4898660;29;20029;-49
2022/07/22 12:21:29;;;;;;;3.85;1.48;;;;;;;;;;4898090;29;20111;-43
2022/07/22 12:24:00;;;;;;;4.90;1.60;;;;;;;;;;4897536;29;20454;-48
2022/07/22 12:26:45;;;;;;;6.25;2.75;;;;;;;;;;4897795;29;20025;-40
2022/07/22 12:29:17;;;;;;;6.82;1.80;;;;;;;;;;4899224;29;20564;-46
2022/07/22 12:31:51;;;;;;;7.53;1.70;;;;;;;;;;4897413;29;20033;-42
2022/07/22 12:34:29;;;;;;;9.80;2.17;;;;;;;;;;4897071;29;20028;-45
2022/07/22 12:36:55;;;;;;;4.25;1.60;;;;;;;;;;4897075;29;20056;-41
2022/07/22 12:39:20;;;;;;;2.38;1.55;;;;;;;;;;4894918;29;20068;-47
2022/07/22 12:41:48;;;;;;;2.33;1.65;;;;;;;;;;4895001;29;20443;-44
2022/07/22 12:44:32;;;;;;;11.65;1.88;;;;;;;;;;4894735;29;20037;-40
2022/07/22 12:46:57;;;;;;;5.47;2.45;;;;;;;;;;4895431;29;20036;-41
2022/07/22 12:49:24;;;;;;;5.85;1.90;;;;;;;;;;4894409;29;20028;-40
2022/07/22 12:52:11;;;;;;;8.55;1.95;;;;;;;;;;4895568;29;20063;-45
2022/07/22 12:54:38;;;;;;;5.40;2.13;;;;;;;;;;4896696;29;20501;-40
2022/07/22 12:57:05;;;;;;;3.95;1.65;;;;;;;;;;4899297;29;20054;-40
2022/07/22 12:59:30;;;;;;;5.72;1.90;;;;;;;;;;4913645;29;20473;-41
2022/07/22 13:01:56;;;;;;;5.60;1.88;;;;;;;;;;4899260;29;20102;-41
2022/07/22 13:04:22;;;;;;;3.63;1.50;;;;;;;;;;4898866;29;20135;-41
2022/07/22 13:06:47;;;;;;;4.88;1.90;;;;;;;;;;4898678;29;20085;-42
2022/07/22 13:09:14;;;;;;;3.15;1.77;;;;;;;;;;4899001;29;20103;-41
2022/07/22 13:11:43;;;;;;;6.47;1.80;;;;;;;;;;4898682;29;20176;-45
2022/07/22 13:14:08;;;;;;;;;;;;;;;;;;4899043;29;20413;-42
2022/07/22 13:16:34;;;;;;;4.07;2.10;;;;;;;;;;4898520;29;19949;-41
2022/07/22 13:18:59;;;;;;;4.70;1.77;;;;;;;;;;4906222;29;20388;-43
2022/07/22 13:21:25;;;;;;;2.88;1.73;;;;;;;;;;4907622;29;20533;-39
2022/07/22 13:23:50;;;;;;;3.60;1.80;;;;;;;;;;4904474;29;20123;-40
2022/07/22 13:26:16;;;;;;;2.50;1.85;;;;;;;;;;4898350;29;20120;-48
2022/07/22 13:28:41;;;;;;;4.05;1.65;;;;;;;;;;4897279;29;20032;-46
2022/07/22 13:31:08;;;;;;;5.10;2.38;;;;;;;;;;4898839;29;20041;-43
2022/07/22 13:33:34;;;;;;;3.33;1.88;;;;;;;;;;4898466;29;20037;-47
2022/07/22 13:36:00;;;;;;;4.18;1.70;;;;;;;;;;4898474;29;20495;-40
2022/07/22 13:38:25;;;;;;;6.18;1.92;;;;;;;;;;4898364;29;20039;-39
2022/07/22 13:40:51;;;;;;;5.60;2.58;;;;;;;;;;4898387;29;20032;-45
2022/07/22 13:43:18;;;;;;;3.15;1.92;;;;;;;;;;4897896;29;20519;-41
2022/07/22 13:45:44;;;;;;;7.63;2.35;;;;;;;;;;4898288;29;20039;-43
2022/07/22 13:48:09;;;;;;;3.08;1.80;;;;;;;;;;4898272;29;20119;-40
2022/07/22 13:50:34;;;;;;;6.28;2.20;;;;;;;;;;4898171;29;20040;-42
2022/07/22 13:53:00;;;;;;;3.05;1.80;;;;;;;;;;4898137;29;20036;-41
2022/07/22 13:55:26;;;;;;;4.65;1.85;;;;;;;;;;4897874;29;20039;-40
2022/07/22 13:57:51;;;;;;;2.42;1.88;;;;;;;;;;4898319;29;20115;-40
2022/07/22 14:00:17;;;;;;;2.72;1.83;;;;;;;;;;4898000;29;20044;-47
2022/07/22 14:02:44;;;;;;;5.80;2.17;;;;;;;;;;4906686;29;20036;-40
2022/07/22 14:05:10;;;;;;;3.67;1.70;;;;;;;;;;4906444;29;20040;-47
2022/07/22 14:07:36;;;;;;;5.28;1.80;;;;;;;;;;4910077;29;20104;-44
2022/07/22 14:10:02;;;;;;;5.07;1.98;;;;;;;;;;4915428;29;20032;-42
2022/07/22 14:12:27;;;;;;;4.47;1.95;;;;;;;;;;4916594;29;20093;-40
2022/07/22 14:14:53;;;;;;;5.00;1.83;;;;;;;;;;4916116;29;20044;-45
2022/07/22 14:17:18;;;;;;;2.08;1.60;;;;;;;;;;4916467;29;20068;-45
2022/07/22 14:19:44;;;;;;;5.03;1.60;;;;;;;;;;4916899;29;20032;-44
2022/07/22 14:22:10;;;;;;;5.88;2.20;;;;;;;;;;4916699;29;20112;-44
2022/07/22 14:24:36;;;;;;;5.28;1.85;;;;;;;;;;4916370;29;20126;-44
2022/07/22 14:27:01;;;;;;;4.20;2.00;;;;;;;;;;4916620;29;20088;-39
2022/07/22 14:29:27;;;;;;;6.28;2.10;;;;;;;;;;4916257;29;20024;-40
2022/07/22 14:31:52;;;;;;;5.75;1.83;;;;;;;;;;4916573;29;20081;-45
2022/07/22 14:34:18;;;;;;;8.13;2.10;;;;;;;;;;4916254;29;20040;-39
2022/07/22 14:36:43;;;;;;;5.07;2.08;;;;;;;;;;4916181;29;20036;-40
2022/07/22 14:39:09;;;;;;;6.30;2.20;;;;;;;;;;4916170;29;20442;-40